Rechercher aéroport 
image banner adimage banner adimage banner ad
image banner ad

L45 - Bakersfield Muni

Situé à Bakersfield, United States

ICAO - L45, IATA -

Données fournies par Airmate  

Information générale

Coordonnées: N35°19'30" W118°59'46"
Élévation : 378 feet MSL.
Variation magnétique : 14° East
Voir autres Aéroports à California

Données opérationnelles

Special qualification required
Heure actuelle UTC:
Heure actuelle locale:
Météo à : KBFL - Meadows Field ( 13 km )
METAR: KBFL 251054Z AUTO 33003KT 9SM CLR 26/02 A2988 RMK AO2 SLP111 T02610022
TAF: KBFL 250530Z 2506/2606 33009KT P6SM BKN250
Voir NOTAMs / SUP AIP / TFR affectant cet aéroport [VIEW]
Fréquences de communication: [VIEW]

Pistes:

Identifiant RWYQFULongueur (ft)Largeur (ft)SurfaceLDA (ft)
16175°400075ASPH
34355°400075ASPH

Coordonnées de l'aéroport

Adresse: Bakersfield United States

Autres services d'aviation

Écoles de pilotage

Kern Charter Service, Inc.

Kern Charter Service, Inc.
info@kerncharter.com+1(661)834-6870

Vue satellite de L45